createdAt,value
2019-04-14T00:00:01.159Z,14.85
2019-04-14T00:05:08.330Z,14.12
2019-04-14T00:10:16.535Z,15.18
2019-04-14T00:15:32.966Z,14.26
2019-04-14T00:20:33.671Z,14.38
2019-04-14T00:25:41.209Z,14.34
2019-04-14T00:30:49.097Z,13.94
2019-04-14T00:35:58.003Z,14.73
2019-04-14T00:41:05.155Z,15.47
2019-04-14T00:46:12.884Z,12.90
2019-04-14T00:51:22.093Z,13.42
2019-04-14T00:56:30.100Z,13.57
2019-04-14T01:01:37.731Z,13.27
2019-04-14T01:06:46.932Z,15.52
2019-04-14T01:11:55.305Z,16.49
2019-04-14T01:17:02.754Z,14.93
2019-04-14T01:22:11.996Z,14.38
2019-04-14T01:27:19.553Z,14.73
2019-04-14T01:32:28.351Z,15.28
2019-04-14T01:37:35.711Z,14.30
2019-04-14T01:42:44.268Z,14.02
2019-04-14T01:47:53.333Z,14.15
2019-04-14T01:53:01.124Z,13.35
2019-04-14T01:58:08.039Z,14.73
2019-04-14T02:03:17.070Z,14.06
2019-04-14T02:08:24.134Z,13.85
2019-04-14T02:13:33.191Z,14.17
2019-04-14T02:18:40.587Z,12.60
2019-04-14T02:23:47.621Z,14.20
2019-04-14T02:28:57.157Z,13.49
2019-04-14T02:34:34.881Z,14.23
2019-04-14T02:39:38.660Z,15.54
2019-04-14T02:44:44.187Z,13.91
2019-04-14T02:50:05.403Z,14.65
2019-04-14T02:54:58.815Z,13.31
2019-04-14T03:00:09.013Z,13.73
2019-04-14T03:05:09.422Z,13.80
2019-04-14T03:10:25.822Z,13.93
2019-04-14T03:15:41.596Z,13.55
2019-04-14T03:20:45.466Z,13.72
2019-04-14T03:31:09.822Z,13.30
2019-04-14T03:41:17.297Z,13.06
2019-04-14T03:46:25.548Z,14.60
2019-04-14T03:56:12.617Z,14.89
2019-04-14T04:01:17.371Z,12.88
2019-04-14T04:06:26.983Z,12.77
2019-04-14T04:11:34.468Z,14.88
2019-04-14T04:16:41.891Z,13.59
2019-04-14T04:21:48.982Z,14.02
2019-04-14T04:26:58.193Z,13.13
2019-04-14T04:32:05.696Z,15.85
2019-04-14T04:37:12.869Z,14.54
2019-04-14T04:42:21.956Z,13.70
2019-04-14T04:47:29.501Z,14.59
2019-04-14T04:52:36.707Z,13.28
2019-04-14T04:57:46.006Z,13.28
2019-04-14T05:02:53.006Z,13.98
2019-04-14T05:08:02.206Z,13.91
2019-04-14T05:13:09.475Z,12.45
2019-04-14T05:18:17.874Z,13.21
2019-04-14T05:23:26.158Z,13.06
2019-04-14T05:28:35.291Z,12.92
2019-04-14T05:33:42.637Z,14.61
2019-04-14T05:38:51.802Z,12.37
2019-04-14T05:44:01.530Z,12.20
2019-04-14T05:49:07.036Z,11.84
2019-04-14T05:54:16.614Z,11.74
2019-04-14T05:59:26.369Z,11.58
2019-04-14T06:04:33.202Z,12.23
2019-04-14T06:09:41.574Z,11.63
2019-04-14T06:14:49.879Z,11.63
2019-04-14T06:19:58.093Z,10.93
2019-04-14T06:25:06.562Z,11.97
2019-04-14T06:30:15.097Z,11.02
2019-04-14T06:35:23.601Z,11.24
2019-04-14T06:40:32.006Z,11.16
2019-04-14T06:45:40.283Z,11.25
2019-04-14T06:50:48.510Z,10.80
2019-04-14T06:55:56.871Z,12.30
2019-04-14T07:01:05.270Z,10.34
2019-04-14T07:06:13.595Z,12.62
2019-04-14T07:11:23.455Z,10.00
2019-04-14T07:16:31.829Z,13.25
2019-04-14T07:21:40.935Z,10.95
2019-04-14T07:26:49.256Z,10.89
2019-04-14T07:31:58.048Z,12.05
2019-04-14T07:37:06.354Z,10.25
2019-04-14T07:42:15.051Z,9.69
2019-04-14T07:47:23.442Z,10.73
2019-04-14T07:52:31.901Z,10.06
2019-04-14T07:57:40.644Z,9.38
2019-04-14T08:02:49.176Z,10.02
2019-04-14T08:07:57.517Z,9.50
2019-04-14T08:13:05.883Z,10.35
2019-04-14T08:18:14.421Z,10.74
2019-04-14T08:23:22.767Z,13.73
2019-04-14T08:28:31.296Z,9.83
2019-04-14T08:33:39.654Z,9.18
2019-04-14T08:38:48.443Z,9.93
2019-04-14T08:43:56.869Z,15.34
2019-04-14T08:49:05.446Z,10.29
2019-04-14T08:54:13.835Z,10.50
2019-04-14T08:59:22.410Z,9.94
2019-04-14T09:04:31.773Z,11.14
2019-04-14T09:09:42.632Z,10.42
2019-04-14T09:14:41.632Z,12.49
2019-04-14T09:19:50.008Z,10.07
2019-04-14T09:24:59.169Z,11.66
2019-04-14T09:30:07.799Z,12.59
2019-04-14T09:35:18.576Z,10.38
2019-04-14T09:40:19.663Z,10.02
2019-04-14T09:45:18.180Z,10.26
2019-04-14T09:50:27.017Z,15.99
2019-04-14T09:55:37.600Z,12.88
2019-04-14T10:00:36.242Z,11.58
2019-04-14T10:05:48.503Z,10.15
2019-04-14T10:10:46.972Z,12.14
2019-04-14T10:15:55.351Z,9.41
2019-04-14T10:21:03.634Z,11.66
2019-04-14T10:26:11.835Z,15.63
2019-04-14T10:31:22.249Z,15.10
2019-04-14T10:36:20.573Z,11.08
2019-04-14T10:41:29.038Z,12.29
2019-04-14T10:46:37.356Z,14.41
2019-04-14T10:51:45.656Z,16.56
2019-04-14T10:56:54.012Z,15.02
2019-04-14T11:02:02.441Z,16.04
2019-04-14T11:07:10.890Z,20.98
2019-04-14T11:12:19.192Z,21.04
2019-04-14T11:17:27.605Z,17.47
2019-04-14T11:22:35.893Z,18.13
2019-04-14T11:27:44.277Z,17.18
2019-04-14T11:32:52.514Z,13.61
2019-04-14T11:38:00.853Z,18.99
2019-04-14T11:43:09.092Z,14.36
2019-04-14T11:48:17.603Z,14.93
2019-04-14T11:53:25.963Z,13.68
2019-04-14T11:58:34.309Z,14.37
2019-04-14T12:03:42.646Z,13.48
2019-04-14T12:08:51.058Z,13.33
2019-04-14T12:13:59.428Z,13.35
2019-04-14T12:19:07.949Z,12.52
2019-04-14T12:24:16.353Z,13.00
2019-04-14T12:29:26.023Z,12.62
2019-04-14T12:34:32.977Z,17.30
2019-04-14T12:39:41.315Z,26.73
2019-04-14T12:44:49.790Z,11.48
2019-04-14T12:49:58.087Z,17.10
2019-04-14T12:55:06.454Z,15.26
2019-04-14T13:00:14.838Z,14.79
2019-04-14T13:05:25.944Z,13.53
2019-04-14T13:10:24.449Z,15.17
2019-04-14T13:15:32.885Z,15.24
2019-04-14T13:20:44.137Z,14.53
2019-04-14T13:43:49.269Z,17.93
2019-04-14T13:44:57.773Z,16.17
2019-04-14T13:50:06.309Z,14.37
2019-04-14T13:55:17.397Z,16.51
2019-04-14T14:00:18.785Z,17.35
2019-04-14T14:05:17.031Z,17.43
2019-04-14T14:10:25.386Z,18.13
2019-04-14T14:15:34.114Z,15.81
2019-04-14T14:20:42.666Z,16.25
2019-04-14T14:25:59.291Z,15.07
2019-04-14T14:30:58.175Z,14.84
2019-04-14T14:36:06.537Z,16.26
2019-04-14T14:41:14.978Z,18.81
2019-04-14T14:46:23.870Z,26.51
2019-04-14T14:51:32.281Z,17.11
2019-04-14T14:56:40.607Z,21.01
2019-04-14T15:01:50.097Z,22.07
2019-04-14T15:06:58.507Z,18.60
2019-04-14T15:12:06.809Z,18.00
2019-04-14T15:17:15.277Z,17.42
2019-04-14T15:22:23.999Z,16.72
2019-04-14T15:27:32.302Z,16.88
2019-04-14T15:32:40.723Z,17.20
2019-04-14T15:37:49.426Z,18.22
2019-04-14T15:42:58.239Z,17.85
2019-04-14T15:48:07.203Z,15.41
2019-04-14T15:53:16.130Z,15.13
2019-04-14T15:58:24.653Z,16.05
2019-04-14T16:03:33.294Z,15.58
2019-04-14T16:08:41.985Z,14.83
2019-04-14T16:13:50.485Z,14.03
2019-04-14T16:18:58.818Z,14.08
2019-04-14T16:24:07.516Z,13.54
2019-04-14T16:29:16.165Z,12.54
2019-04-14T16:34:24.494Z,15.24
2019-04-14T16:39:33.136Z,13.84
2019-04-14T16:44:42.593Z,13.28
2019-04-14T16:49:51.159Z,14.23
2019-04-14T16:54:59.713Z,11.15
2019-04-14T17:00:08.162Z,15.81
2019-04-14T17:05:16.650Z,11.46
2019-04-14T17:10:26.570Z,11.57
2019-04-14T17:15:34.974Z,13.25
2019-04-14T17:20:44.190Z,13.11
2019-04-14T17:25:52.817Z,14.42
2019-04-14T17:31:03.037Z,14.02
2019-04-14T17:36:01.419Z,14.05
2019-04-14T17:41:10.375Z,12.38
2019-04-14T17:46:18.894Z,17.09
2019-04-14T17:51:27.423Z,13.48
2019-04-14T17:56:35.835Z,15.68
2019-04-14T18:01:44.573Z,10.95
2019-04-14T18:06:53.206Z,11.52
2019-04-14T18:12:01.611Z,12.60
2019-04-14T18:17:09.942Z,12.97
2019-04-14T18:22:18.791Z,12.54
2019-04-14T18:27:27.436Z,9.71
2019-04-14T18:32:35.808Z,14.99
2019-04-14T18:37:44.594Z,14.10
2019-04-14T18:43:02.554Z,12.68
2019-04-14T18:48:08.694Z,12.45
2019-04-14T18:53:09.304Z,14.70
2019-04-14T18:58:08.198Z,19.30
2019-04-14T19:03:16.524Z,16.71
2019-04-14T19:08:24.823Z,25.21
2019-04-14T19:13:34.036Z,11.04
2019-04-14T19:18:42.531Z,12.24
2019-04-14T19:23:53.549Z,14.25
2019-04-14T19:28:52.039Z,12.65
2019-04-14T19:34:02.290Z,12.00
2019-04-14T19:39:02.328Z,12.29
2019-04-14T19:44:11.207Z,13.95
2019-04-14T19:49:19.563Z,11.78
2019-04-14T19:54:27.923Z,11.96
2019-04-14T19:59:36.249Z,14.10
2019-04-14T20:04:44.410Z,13.82
2019-04-14T20:09:53.266Z,11.67
2019-04-14T20:15:01.683Z,10.70
2019-04-14T20:20:10.105Z,10.87
2019-04-14T20:25:18.592Z,10.51
2019-04-14T20:30:27.093Z,12.72
2019-04-14T20:35:35.422Z,11.14
2019-04-14T20:40:43.709Z,10.90
2019-04-14T20:45:52.189Z,11.36
2019-04-14T20:51:00.583Z,9.78
2019-04-14T20:56:09.137Z,9.23
2019-04-14T21:01:17.338Z,8.43
2019-04-14T21:06:26.692Z,9.21
2019-04-14T21:11:36.417Z,9.21
2019-04-14T21:16:44.897Z,9.10
2019-04-14T21:21:53.418Z,7.71
2019-04-14T21:27:01.759Z,8.30
2019-04-14T21:32:10.097Z,6.93
2019-04-14T21:37:18.370Z,8.63
2019-04-14T21:42:26.709Z,5.50
2019-04-14T21:47:34.982Z,6.52
2019-04-14T21:52:43.240Z,6.26
2019-04-14T21:57:52.023Z,5.36
2019-04-14T22:03:00.233Z,6.46
2019-04-14T22:08:08.747Z,6.43
2019-04-14T22:13:17.047Z,6.43
2019-04-14T22:18:25.909Z,6.26
2019-04-14T22:23:34.431Z,5.48
2019-04-14T22:28:43.417Z,5.83
2019-04-14T22:33:51.817Z,7.30
2019-04-14T22:39:00.610Z,5.48
2019-04-14T22:44:09.027Z,6.28
2019-04-14T22:49:18.139Z,6.33
2019-04-14T22:54:26.668Z,6.49
2019-04-14T22:59:34.941Z,6.09
2019-04-14T23:04:43.266Z,7.05
2019-04-14T23:09:51.393Z,7.28
2019-04-14T23:14:59.680Z,5.18
2019-04-14T23:20:07.999Z,6.22
2019-04-14T23:25:16.337Z,8.37
2019-04-14T23:30:25.112Z,8.12
2019-04-14T23:35:33.621Z,7.98
2019-04-14T23:40:41.990Z,8.64
2019-04-14T23:45:50.584Z,6.74
2019-04-14T23:50:58.759Z,5.80
2019-04-14T23:56:07.002Z,5.58
